sensor_id;sensor_type;location;lat;lon;timestamp;P1;durP1;ratioP1;P2;durP2;ratioP2
66970;SDS011;53901;51.466;-2.588;2023-05-28T00:01:03;11.15;;;4.35;;
66970;SDS011;53901;51.466;-2.588;2023-05-28T00:03:28;9.45;;;4.22;;
66970;SDS011;53901;51.466;-2.588;2023-05-28T00:05:56;10.38;;;4.13;;
66970;SDS011;53901;51.466;-2.588;2023-05-28T00:08:22;11.23;;;4.20;;
66970;SDS011;53901;51.466;-2.588;2023-05-28T00:10:48;9.95;;;3.80;;
66970;SDS011;53901;51.466;-2.588;2023-05-28T00:13:14;8.88;;;4.22;;
66970;SDS011;53901;51.466;-2.588;2023-05-28T00:15:39;10.65;;;4.13;;
66970;SDS011;53901;51.466;-2.588;2023-05-28T00:18:05;8.95;;;4.13;;
66970;SDS011;53901;51.466;-2.588;2023-05-28T00:20:30;12.27;;;4.00;;
66970;SDS011;53901;51.466;-2.588;2023-05-28T00:22:56;11.68;;;4.35;;
66970;SDS011;53901;51.466;-2.588;2023-05-28T00:25:22;8.40;;;4.05;;
66970;SDS011;53901;51.466;-2.588;2023-05-28T00:27:47;14.93;;;3.85;;
66970;SDS011;53901;51.466;-2.588;2023-05-28T00:30:13;9.23;;;4.22;;
66970;SDS011;53901;51.466;-2.588;2023-05-28T00:32:38;8.75;;;4.05;;
66970;SDS011;53901;51.466;-2.588;2023-05-28T00:35:04;9.73;;;3.92;;
66970;SDS011;53901;51.466;-2.588;2023-05-28T00:37:29;10.52;;;3.60;;
66970;SDS011;53901;51.466;-2.588;2023-05-28T00:39:55;9.20;;;3.67;;
66970;SDS011;53901;51.466;-2.588;2023-05-28T00:42:20;14.57;;;3.75;;
66970;SDS011;53901;51.466;-2.588;2023-05-28T00:44:46;9.75;;;3.65;;
66970;SDS011;53901;51.466;-2.588;2023-05-28T00:47:12;9.13;;;4.13;;
66970;SDS011;53901;51.466;-2.588;2023-05-28T00:49:38;6.75;;;3.15;;
66970;SDS011;53901;51.466;-2.588;2023-05-28T00:52:03;7.30;;;3.42;;
66970;SDS011;53901;51.466;-2.588;2023-05-28T00:54:30;10.73;;;3.83;;
66970;SDS011;53901;51.466;-2.588;2023-05-28T00:56:56;10.27;;;3.88;;
66970;SDS011;53901;51.466;-2.588;2023-05-28T00:59:25;10.15;;;3.95;;
66970;SDS011;53901;51.466;-2.588;2023-05-28T01:01:51;12.48;;;3.75;;
66970;SDS011;53901;51.466;-2.588;2023-05-28T01:04:17;8.45;;;3.42;;
66970;SDS011;53901;51.466;-2.588;2023-05-28T01:06:43;8.00;;;3.72;;
66970;SDS011;53901;51.466;-2.588;2023-05-28T01:09:10;7.38;;;3.67;;
66970;SDS011;53901;51.466;-2.588;2023-05-28T01:11:36;9.75;;;3.40;;
66970;SDS011;53901;51.466;-2.588;2023-05-28T01:14:02;8.13;;;4.03;;
66970;SDS011;53901;51.466;-2.588;2023-05-28T01:16:27;9.20;;;3.70;;
66970;SDS011;53901;51.466;-2.588;2023-05-28T01:18:56;12.70;;;4.30;;
66970;SDS011;53901;51.466;-2.588;2023-05-28T01:21:23;9.95;;;4.50;;
66970;SDS011;53901;51.466;-2.588;2023-05-28T01:23:50;9.70;;;4.97;;
66970;SDS011;53901;51.466;-2.588;2023-05-28T01:26:16;12.80;;;4.60;;
66970;SDS011;53901;51.466;-2.588;2023-05-28T01:28:45;13.98;;;4.85;;
66970;SDS011;53901;51.466;-2.588;2023-05-28T01:31:12;11.07;;;4.78;;
66970;SDS011;53901;51.466;-2.588;2023-05-28T01:33:41;11.55;;;4.72;;
66970;SDS011;53901;51.466;-2.588;2023-05-28T01:36:08;9.63;;;4.20;;
66970;SDS011;53901;51.466;-2.588;2023-05-28T01:38:46;9.98;;;3.72;;
66970;SDS011;53901;51.466;-2.588;2023-05-28T01:41:12;9.23;;;3.88;;
66970;SDS011;53901;51.466;-2.588;2023-05-28T01:43:39;9.57;;;3.60;;
66970;SDS011;53901;51.466;-2.588;2023-05-28T01:46:05;7.53;;;3.47;;
66970;SDS011;53901;51.466;-2.588;2023-05-28T01:48:31;10.40;;;3.40;;
66970;SDS011;53901;51.466;-2.588;2023-05-28T01:50:56;6.25;;;3.30;;
66970;SDS011;53901;51.466;-2.588;2023-05-28T01:53:22;9.77;;;3.22;;
66970;SDS011;53901;51.466;-2.588;2023-05-28T01:55:48;4.57;;;3.17;;
66970;SDS011;53901;51.466;-2.588;2023-05-28T01:58:13;6.50;;;3.13;;
66970;SDS011;53901;51.466;-2.588;2023-05-28T02:00:41;6.63;;;3.20;;
66970;SDS011;53901;51.466;-2.588;2023-05-28T02:03:08;6.90;;;3.10;;
66970;SDS011;53901;51.466;-2.588;2023-05-28T02:05:36;5.55;;;3.13;;
66970;SDS011;53901;51.466;-2.588;2023-05-28T02:08:02;6.63;;;3.40;;
66970;SDS011;53901;51.466;-2.588;2023-05-28T02:10:27;8.57;;;3.15;;
66970;SDS011;53901;51.466;-2.588;2023-05-28T02:12:53;8.07;;;3.35;;
66970;SDS011;53901;51.466;-2.588;2023-05-28T02:15:19;6.50;;;3.42;;
66970;SDS011;53901;51.466;-2.588;2023-05-28T02:17:45;10.68;;;3.22;;
66970;SDS011;53901;51.466;-2.588;2023-05-28T02:20:11;5.25;;;2.88;;
66970;SDS011;53901;51.466;-2.588;2023-05-28T02:22:36;7.35;;;3.22;;
66970;SDS011;53901;51.466;-2.588;2023-05-28T02:25:02;5.95;;;3.00;;
66970;SDS011;53901;51.466;-2.588;2023-05-28T02:27:28;6.55;;;3.00;;
66970;SDS011;53901;51.466;-2.588;2023-05-28T02:29:57;5.85;;;3.05;;
66970;SDS011;53901;51.466;-2.588;2023-05-28T02:32:22;6.30;;;3.15;;
66970;SDS011;53901;51.466;-2.588;2023-05-28T02:34:48;6.95;;;3.33;;
66970;SDS011;53901;51.466;-2.588;2023-05-28T02:37:13;7.25;;;3.33;;
66970;SDS011;53901;51.466;-2.588;2023-05-28T02:39:38;5.97;;;3.13;;
66970;SDS011;53901;51.466;-2.588;2023-05-28T02:42:04;7.47;;;3.38;;
66970;SDS011;53901;51.466;-2.588;2023-05-28T02:44:30;6.43;;;2.85;;
66970;SDS011;53901;51.466;-2.588;2023-05-28T02:46:55;7.28;;;2.80;;
66970;SDS011;53901;51.466;-2.588;2023-05-28T02:49:22;7.68;;;3.00;;
66970;SDS011;53901;51.466;-2.588;2023-05-28T02:51:47;7.22;;;3.30;;
66970;SDS011;53901;51.466;-2.588;2023-05-28T02:54:12;8.95;;;3.38;;
66970;SDS011;53901;51.466;-2.588;2023-05-28T02:56:38;7.15;;;3.28;;
66970;SDS011;53901;51.466;-2.588;2023-05-28T02:59:03;5.75;;;2.85;;
66970;SDS011;53901;51.466;-2.588;2023-05-28T03:01:32;9.82;;;3.47;;
66970;SDS011;53901;51.466;-2.588;2023-05-28T03:03:57;6.95;;;3.38;;
66970;SDS011;53901;51.466;-2.588;2023-05-28T03:06:23;9.13;;;3.65;;
66970;SDS011;53901;51.466;-2.588;2023-05-28T03:08:48;5.85;;;3.10;;
66970;SDS011;53901;51.466;-2.588;2023-05-28T03:11:13;6.32;;;3.17;;
66970;SDS011;53901;51.466;-2.588;2023-05-28T03:13:39;8.30;;;3.50;;
66970;SDS011;53901;51.466;-2.588;2023-05-28T03:16:04;7.40;;;3.60;;
66970;SDS011;53901;51.466;-2.588;2023-05-28T03:18:30;6.70;;;3.78;;
66970;SDS011;53901;51.466;-2.588;2023-05-28T03:20:55;8.05;;;3.45;;
66970;SDS011;53901;51.466;-2.588;2023-05-28T03:23:21;7.07;;;3.67;;
66970;SDS011;53901;51.466;-2.588;2023-05-28T03:25:46;6.45;;;3.20;;
66970;SDS011;53901;51.466;-2.588;2023-05-28T03:28:11;6.20;;;3.50;;
66970;SDS011;53901;51.466;-2.588;2023-05-28T03:30:37;8.73;;;3.70;;
66970;SDS011;53901;51.466;-2.588;2023-05-28T03:33:02;7.97;;;3.28;;
66970;SDS011;53901;51.466;-2.588;2023-05-28T03:35:28;6.75;;;3.53;;
66970;SDS011;53901;51.466;-2.588;2023-05-28T03:37:53;8.05;;;3.38;;
66970;SDS011;53901;51.466;-2.588;2023-05-28T03:40:18;6.88;;;3.38;;
66970;SDS011;53901;51.466;-2.588;2023-05-28T03:42:44;6.63;;;3.40;;
66970;SDS011;53901;51.466;-2.588;2023-05-28T03:45:09;7.72;;;3.38;;
66970;SDS011;53901;51.466;-2.588;2023-05-28T03:47:35;6.78;;;3.33;;
66970;SDS011;53901;51.466;-2.588;2023-05-28T03:50:01;5.38;;;3.15;;
66970;SDS011;53901;51.466;-2.588;2023-05-28T03:52:26;5.40;;;3.08;;
66970;SDS011;53901;51.466;-2.588;2023-05-28T03:54:52;13.45;;;3.45;;
66970;SDS011;53901;51.466;-2.588;2023-05-28T03:57:17;8.70;;;3.63;;
66970;SDS011;53901;51.466;-2.588;2023-05-28T03:59:42;6.50;;;3.15;;
66970;SDS011;53901;51.466;-2.588;2023-05-28T04:02:08;10.55;;;2.90;;
66970;SDS011;53901;51.466;-2.588;2023-05-28T04:04:33;5.70;;;3.00;;
66970;SDS011;53901;51.466;-2.588;2023-05-28T04:06:59;4.75;;;2.42;;
66970;SDS011;53901;51.466;-2.588;2023-05-28T04:09:24;6.55;;;3.00;;
66970;SDS011;53901;51.466;-2.588;2023-05-28T04:11:52;10.90;;;3.42;;
66970;SDS011;53901;51.466;-2.588;2023-05-28T04:14:17;6.10;;;3.10;;
66970;SDS011;53901;51.466;-2.588;2023-05-28T04:16:43;5.80;;;2.90;;
66970;SDS011;53901;51.466;-2.588;2023-05-28T04:19:08;7.40;;;2.90;;
66970;SDS011;53901;51.466;-2.588;2023-05-28T04:21:33;5.68;;;2.60;;
66970;SDS011;53901;51.466;-2.588;2023-05-28T04:23:59;9.00;;;2.90;;
66970;SDS011;53901;51.466;-2.588;2023-05-28T04:26:25;10.10;;;2.90;;
66970;SDS011;53901;51.466;-2.588;2023-05-28T04:28:51;7.13;;;2.83;;
66970;SDS011;53901;51.466;-2.588;2023-05-28T04:31:18;13.82;;;3.30;;
66970;SDS011;53901;51.466;-2.588;2023-05-28T04:33:43;8.80;;;3.45;;
66970;SDS011;53901;51.466;-2.588;2023-05-28T04:36:11;9.40;;;3.22;;
66970;SDS011;53901;51.466;-2.588;2023-05-28T04:38:38;5.40;;;3.17;;
66970;SDS011;53901;51.466;-2.588;2023-05-28T04:41:04;8.63;;;3.25;;
66970;SDS011;53901;51.466;-2.588;2023-05-28T04:43:30;6.63;;;3.13;;
66970;SDS011;53901;51.466;-2.588;2023-05-28T04:45:56;6.03;;;3.10;;
66970;SDS011;53901;51.466;-2.588;2023-05-28T04:48:23;5.50;;;2.85;;
66970;SDS011;53901;51.466;-2.588;2023-05-28T04:50:48;9.68;;;3.50;;
66970;SDS011;53901;51.466;-2.588;2023-05-28T04:53:15;6.25;;;2.88;;
66970;SDS011;53901;51.466;-2.588;2023-05-28T04:55:40;7.43;;;3.00;;
66970;SDS011;53901;51.466;-2.588;2023-05-28T04:58:06;6.75;;;3.45;;
66970;SDS011;53901;51.466;-2.588;2023-05-28T05:00:32;5.68;;;3.20;;
66970;SDS011;53901;51.466;-2.588;2023-05-28T05:02:59;5.47;;;2.75;;
66970;SDS011;53901;51.466;-2.588;2023-05-28T05:05:25;6.68;;;3.10;;
66970;SDS011;53901;51.466;-2.588;2023-05-28T05:07:50;8.05;;;3.53;;
66970;SDS011;53901;51.466;-2.588;2023-05-28T05:10:17;7.15;;;3.20;;
66970;SDS011;53901;51.466;-2.588;2023-05-28T05:12:42;6.43;;;3.13;;
66970;SDS011;53901;51.466;-2.588;2023-05-28T05:15:07;8.18;;;3.28;;
66970;SDS011;53901;51.466;-2.588;2023-05-28T05:17:33;9.75;;;3.50;;
66970;SDS011;53901;51.466;-2.588;2023-05-28T05:20:00;7.10;;;3.75;;
66970;SDS011;53901;51.466;-2.588;2023-05-28T05:22:27;7.32;;;3.47;;
66970;SDS011;53901;51.466;-2.588;2023-05-28T05:24:53;9.60;;;3.13;;
66970;SDS011;53901;51.466;-2.588;2023-05-28T05:27:18;8.80;;;3.67;;
66970;SDS011;53901;51.466;-2.588;2023-05-28T05:29:43;7.82;;;3.00;;
66970;SDS011;53901;51.466;-2.588;2023-05-28T05:32:09;6.60;;;3.33;;
66970;SDS011;53901;51.466;-2.588;2023-05-28T05:34:35;8.55;;;3.33;;
66970;SDS011;53901;51.466;-2.588;2023-05-28T05:37:00;6.55;;;3.17;;
66970;SDS011;53901;51.466;-2.588;2023-05-28T05:39:26;4.85;;;2.70;;
66970;SDS011;53901;51.466;-2.588;2023-05-28T05:41:52;7.80;;;3.25;;
66970;SDS011;53901;51.466;-2.588;2023-05-28T05:44:17;6.70;;;3.05;;
66970;SDS011;53901;51.466;-2.588;2023-05-28T05:46:43;5.40;;;3.20;;
66970;SDS011;53901;51.466;-2.588;2023-05-28T05:49:08;5.63;;;2.72;;
66970;SDS011;53901;51.466;-2.588;2023-05-28T05:51:34;7.75;;;3.60;;
66970;SDS011;53901;51.466;-2.588;2023-05-28T05:54:00;8.50;;;3.53;;
66970;SDS011;53901;51.466;-2.588;2023-05-28T05:56:26;7.18;;;3.30;;
66970;SDS011;53901;51.466;-2.588;2023-05-28T05:58:52;6.68;;;3.20;;
66970;SDS011;53901;51.466;-2.588;2023-05-28T06:01:17;6.93;;;3.38;;
66970;SDS011;53901;51.466;-2.588;2023-05-28T06:03:43;5.40;;;3.10;;
66970;SDS011;53901;51.466;-2.588;2023-05-28T06:06:08;6.47;;;3.20;;
66970;SDS011;53901;51.466;-2.588;2023-05-28T06:08:34;6.53;;;2.90;;
66970;SDS011;53901;51.466;-2.588;2023-05-28T06:11:00;4.78;;;3.00;;
66970;SDS011;53901;51.466;-2.588;2023-05-28T06:13:25;7.07;;;3.28;;
66970;SDS011;53901;51.466;-2.588;2023-05-28T06:15:51;6.38;;;2.90;;
66970;SDS011;53901;51.466;-2.588;2023-05-28T06:18:17;7.15;;;3.40;;
66970;SDS011;53901;51.466;-2.588;2023-05-28T06:20:42;7.32;;;3.17;;
66970;SDS011;53901;51.466;-2.588;2023-05-28T06:23:07;6.82;;;3.35;;
66970;SDS011;53901;51.466;-2.588;2023-05-28T06:25:33;7.32;;;3.47;;
66970;SDS011;53901;51.466;-2.588;2023-05-28T06:28:00;8.52;;;3.00;;
66970;SDS011;53901;51.466;-2.588;2023-05-28T06:30:26;8.05;;;3.03;;
66970;SDS011;53901;51.466;-2.588;2023-05-28T06:32:51;8.18;;;3.22;;
66970;SDS011;53901;51.466;-2.588;2023-05-28T06:35:17;6.20;;;2.65;;
66970;SDS011;53901;51.466;-2.588;2023-05-28T06:37:43;9.10;;;3.28;;
66970;SDS011;53901;51.466;-2.588;2023-05-28T06:40:08;6.70;;;3.08;;
66970;SDS011;53901;51.466;-2.588;2023-05-28T06:42:35;6.05;;;2.78;;
66970;SDS011;53901;51.466;-2.588;2023-05-28T06:45:01;6.07;;;2.90;;
66970;SDS011;53901;51.466;-2.588;2023-05-28T06:47:27;7.10;;;3.00;;
66970;SDS011;53901;51.466;-2.588;2023-05-28T06:49:53;5.68;;;2.75;;
66970;SDS011;53901;51.466;-2.588;2023-05-28T06:52:19;6.10;;;2.72;;
66970;SDS011;53901;51.466;-2.588;2023-05-28T06:54:44;6.55;;;2.90;;
66970;SDS011;53901;51.466;-2.588;2023-05-28T06:57:10;6.25;;;3.20;;
66970;SDS011;53901;51.466;-2.588;2023-05-28T06:59:38;7.53;;;3.40;;
66970;SDS011;53901;51.466;-2.588;2023-05-28T07:02:04;7.50;;;3.40;;
66970;SDS011;53901;51.466;-2.588;2023-05-28T07:04:29;6.20;;;3.10;;
66970;SDS011;53901;51.466;-2.588;2023-05-28T07:06:55;5.47;;;3.30;;
66970;SDS011;53901;51.466;-2.588;2023-05-28T07:09:20;8.02;;;3.40;;
66970;SDS011;53901;51.466;-2.588;2023-05-28T07:11:46;6.07;;;3.05;;
66970;SDS011;53901;51.466;-2.588;2023-05-28T07:14:12;11.18;;;3.95;;
66970;SDS011;53901;51.466;-2.588;2023-05-28T07:16:37;6.25;;;3.47;;
66970;SDS011;53901;51.466;-2.588;2023-05-28T07:19:02;6.25;;;3.20;;
66970;SDS011;53901;51.466;-2.588;2023-05-28T07:21:28;6.25;;;3.25;;
66970;SDS011;53901;51.466;-2.588;2023-05-28T07:23:53;10.27;;;3.33;;
66970;SDS011;53901;51.466;-2.588;2023-05-28T07:26:18;8.77;;;3.50;;
66970;SDS011;53901;51.466;-2.588;2023-05-28T07:28:44;5.85;;;3.45;;
66970;SDS011;53901;51.466;-2.588;2023-05-28T07:31:09;5.22;;;3.20;;
66970;SDS011;53901;51.466;-2.588;2023-05-28T07:33:35;9.82;;;3.50;;
66970;SDS011;53901;51.466;-2.588;2023-05-28T07:36:00;6.22;;;3.30;;
66970;SDS011;53901;51.466;-2.588;2023-05-28T07:38:26;6.50;;;3.45;;
66970;SDS011;53901;51.466;-2.588;2023-05-28T07:40:51;7.82;;;3.00;;
66970;SDS011;53901;51.466;-2.588;2023-05-28T07:43:17;6.38;;;3.22;;
66970;SDS011;53901;51.466;-2.588;2023-05-28T07:45:42;6.70;;;3.42;;
66970;SDS011;53901;51.466;-2.588;2023-05-28T07:48:07;7.97;;;3.50;;
66970;SDS011;53901;51.466;-2.588;2023-05-28T07:50:33;7.85;;;3.40;;
66970;SDS011;53901;51.466;-2.588;2023-05-28T07:52:59;8.85;;;3.90;;
66970;SDS011;53901;51.466;-2.588;2023-05-28T07:55:26;7.90;;;3.58;;
66970;SDS011;53901;51.466;-2.588;2023-05-28T07:57:51;7.97;;;3.85;;
66970;SDS011;53901;51.466;-2.588;2023-05-28T08:00:17;8.35;;;3.78;;
66970;SDS011;53901;51.466;-2.588;2023-05-28T08:02:43;7.47;;;3.75;;
66970;SDS011;53901;51.466;-2.588;2023-05-28T08:05:08;5.78;;;3.17;;
66970;SDS011;53901;51.466;-2.588;2023-05-28T08:07:34;8.98;;;3.30;;
66970;SDS011;53901;51.466;-2.588;2023-05-28T08:10:00;9.27;;;3.67;;
66970;SDS011;53901;51.466;-2.588;2023-05-28T08:12:25;8.70;;;3.67;;
66970;SDS011;53901;51.466;-2.588;2023-05-28T08:14:51;6.53;;;3.38;;
66970;SDS011;53901;51.466;-2.588;2023-05-28T08:17:16;5.63;;;3.13;;
66970;SDS011;53901;51.466;-2.588;2023-05-28T08:19:42;6.88;;;3.60;;
66970;SDS011;53901;51.466;-2.588;2023-05-28T08:22:07;12.85;;;3.95;;
66970;SDS011;53901;51.466;-2.588;2023-05-28T08:24:33;13.00;;;3.70;;
66970;SDS011;53901;51.466;-2.588;2023-05-28T08:26:59;10.73;;;3.60;;
66970;SDS011;53901;51.466;-2.588;2023-05-28T08:29:24;9.77;;;3.65;;
66970;SDS011;53901;51.466;-2.588;2023-05-28T08:31:49;7.63;;;3.80;;
66970;SDS011;53901;51.466;-2.588;2023-05-28T08:34:15;6.93;;;3.58;;
66970;SDS011;53901;51.466;-2.588;2023-05-28T08:36:41;9.60;;;4.07;;
66970;SDS011;53901;51.466;-2.588;2023-05-28T08:39:07;8.65;;;4.30;;
66970;SDS011;53901;51.466;-2.588;2023-05-28T08:41:33;8.23;;;3.78;;
66970;SDS011;53901;51.466;-2.588;2023-05-28T08:43:59;10.90;;;3.88;;
66970;SDS011;53901;51.466;-2.588;2023-05-28T08:46:25;8.77;;;3.70;;
66970;SDS011;53901;51.466;-2.588;2023-05-28T08:48:51;6.32;;;3.50;;
66970;SDS011;53901;51.466;-2.588;2023-05-28T08:51:17;8.88;;;3.35;;
66970;SDS011;53901;51.466;-2.588;2023-05-28T08:53:46;7.45;;;3.55;;
66970;SDS011;53901;51.466;-2.588;2023-05-28T08:56:12;8.45;;;3.70;;
66970;SDS011;53901;51.466;-2.588;2023-05-28T08:58:38;6.50;;;3.78;;
66970;SDS011;53901;51.466;-2.588;2023-05-28T09:01:06;7.70;;;3.85;;
66970;SDS011;53901;51.466;-2.588;2023-05-28T09:03:33;9.15;;;3.53;;
66970;SDS011;53901;51.466;-2.588;2023-05-28T09:05:59;8.68;;;3.40;;
66970;SDS011;53901;51.466;-2.588;2023-05-28T09:08:26;8.10;;;3.53;;
66970;SDS011;53901;51.466;-2.588;2023-05-28T09:10:51;9.52;;;3.83;;
66970;SDS011;53901;51.466;-2.588;2023-05-28T09:13:19;12.23;;;3.42;;
66970;SDS011;53901;51.466;-2.588;2023-05-28T09:15:49;8.30;;;4.00;;
66970;SDS011;53901;51.466;-2.588;2023-05-28T09:18:18;8.27;;;3.78;;
66970;SDS011;53901;51.466;-2.588;2023-05-28T09:20:45;6.90;;;3.67;;
66970;SDS011;53901;51.466;-2.588;2023-05-28T09:23:11;5.82;;;3.38;;
66970;SDS011;53901;51.466;-2.588;2023-05-28T09:25:36;7.75;;;3.88;;
66970;SDS011;53901;51.466;-2.588;2023-05-28T09:28:03;7.72;;;3.58;;
66970;SDS011;53901;51.466;-2.588;2023-05-28T09:30:29;7.18;;;3.80;;
66970;SDS011;53901;51.466;-2.588;2023-05-28T09:33:04;9.48;;;3.83;;
66970;SDS011;53901;51.466;-2.588;2023-05-28T09:35:30;8.32;;;3.78;;
66970;SDS011;53901;51.466;-2.588;2023-05-28T09:38:00;10.18;;;3.90;;
66970;SDS011;53901;51.466;-2.588;2023-05-28T09:40:26;8.38;;;3.70;;
66970;SDS011;53901;51.466;-2.588;2023-05-28T09:42:51;8.30;;;4.10;;
66970;SDS011;53901;51.466;-2.588;2023-05-28T09:45:22;8.90;;;3.65;;
66970;SDS011;53901;51.466;-2.588;2023-05-28T09:47:50;7.88;;;3.55;;
66970;SDS011;53901;51.466;-2.588;2023-05-28T09:50:16;7.53;;;3.83;;
66970;SDS011;53901;51.466;-2.588;2023-05-28T09:52:43;8.98;;;3.95;;
66970;SDS011;53901;51.466;-2.588;2023-05-28T09:55:11;7.32;;;3.80;;
66970;SDS011;53901;51.466;-2.588;2023-05-28T09:57:42;7.07;;;3.40;;
66970;SDS011;53901;51.466;-2.588;2023-05-28T10:00:20;10.25;;;3.75;;
66970;SDS011;53901;51.466;-2.588;2023-05-28T10:05:20;9.10;;;3.83;;
66970;SDS011;53901;51.466;-2.588;2023-05-28T10:07:48;8.98;;;3.80;;
66970;SDS011;53901;51.466;-2.588;2023-05-28T10:10:14;9.00;;;3.55;;
66970;SDS011;53901;51.466;-2.588;2023-05-28T10:12:40;9.00;;;3.75;;
66970;SDS011;53901;51.466;-2.588;2023-05-28T10:15:08;7.05;;;3.83;;
66970;SDS011;53901;51.466;-2.588;2023-05-28T10:17:34;8.20;;;3.35;;
66970;SDS011;53901;51.466;-2.588;2023-05-28T10:20:00;7.65;;;3.60;;
66970;SDS011;53901;51.466;-2.588;2023-05-28T10:22:25;15.18;;;3.70;;
66970;SDS011;53901;51.466;-2.588;2023-05-28T10:24:51;6.75;;;3.30;;
66970;SDS011;53901;51.466;-2.588;2023-05-28T10:27:16;6.80;;;3.13;;
66970;SDS011;53901;51.466;-2.588;2023-05-28T10:29:44;7.90;;;3.65;;
66970;SDS011;53901;51.466;-2.588;2023-05-28T10:32:13;10.10;;;3.75;;
66970;SDS011;53901;51.466;-2.588;2023-05-28T10:34:39;6.22;;;3.50;;
66970;SDS011;53901;51.466;-2.588;2023-05-28T10:37:06;8.98;;;4.00;;
66970;SDS011;53901;51.466;-2.588;2023-05-28T10:39:41;7.55;;;4.07;;
66970;SDS011;53901;51.466;-2.588;2023-05-28T10:42:07;6.82;;;3.75;;
66970;SDS011;53901;51.466;-2.588;2023-05-28T10:44:49;21.48;;;3.65;;
66970;SDS011;53901;51.466;-2.588;2023-05-28T10:47:17;7.72;;;3.38;;
66970;SDS011;53901;51.466;-2.588;2023-05-28T10:49:59;6.85;;;3.35;;
66970;SDS011;53901;51.466;-2.588;2023-05-28T10:52:34;8.25;;;3.60;;
66970;SDS011;53901;51.466;-2.588;2023-05-28T10:55:04;7.20;;;3.60;;
66970;SDS011;53901;51.466;-2.588;2023-05-28T11:00:10;6.97;;;3.65;;
66970;SDS011;53901;51.466;-2.588;2023-05-28T11:02:43;9.27;;;3.67;;
66970;SDS011;53901;51.466;-2.588;2023-05-28T11:05:09;7.25;;;3.53;;
66970;SDS011;53901;51.466;-2.588;2023-05-28T11:07:38;6.15;;;3.40;;
66970;SDS011;53901;51.466;-2.588;2023-05-28T11:10:07;9.50;;;3.58;;
66970;SDS011;53901;51.466;-2.588;2023-05-28T11:12:35;7.45;;;3.17;;
66970;SDS011;53901;51.466;-2.588;2023-05-28T11:15:02;7.30;;;3.35;;
66970;SDS011;53901;51.466;-2.588;2023-05-28T11:17:28;6.95;;;3.28;;
66970;SDS011;53901;51.466;-2.588;2023-05-28T11:19:53;8.60;;;3.30;;
66970;SDS011;53901;51.466;-2.588;2023-05-28T11:22:19;11.45;;;5.10;;
66970;SDS011;53901;51.466;-2.588;2023-05-28T11:24:58;8.02;;;3.78;;
66970;SDS011;53901;51.466;-2.588;2023-05-28T11:27:29;8.65;;;3.33;;
66970;SDS011;53901;51.466;-2.588;2023-05-28T11:29:57;8.05;;;3.53;;
66970;SDS011;53901;51.466;-2.588;2023-05-28T11:32:23;6.65;;;3.58;;
66970;SDS011;53901;51.466;-2.588;2023-05-28T11:34:50;6.82;;;3.40;;
66970;SDS011;53901;51.466;-2.588;2023-05-28T11:37:21;7.00;;;3.30;;
66970;SDS011;53901;51.466;-2.588;2023-05-28T11:39:49;10.65;;;3.42;;
66970;SDS011;53901;51.466;-2.588;2023-05-28T11:42:15;11.63;;;3.40;;
66970;SDS011;53901;51.466;-2.588;2023-05-28T11:44:45;8.23;;;3.97;;
66970;SDS011;53901;51.466;-2.588;2023-05-28T11:47:11;6.60;;;3.30;;
66970;SDS011;53901;51.466;-2.588;2023-05-28T11:49:36;8.77;;;3.20;;
66970;SDS011;53901;51.466;-2.588;2023-05-28T11:52:02;7.80;;;3.22;;
66970;SDS011;53901;51.466;-2.588;2023-05-28T11:54:28;11.82;;;3.70;;
66970;SDS011;53901;51.466;-2.588;2023-05-28T11:56:53;7.47;;;3.88;;
66970;SDS011;53901;51.466;-2.588;2023-05-28T11:59:22;7.03;;;3.20;;
66970;SDS011;53901;51.466;-2.588;2023-05-28T12:01:51;6.57;;;2.92;;
66970;SDS011;53901;51.466;-2.588;2023-05-28T12:04:23;7.55;;;3.42;;
66970;SDS011;53901;51.466;-2.588;2023-05-28T12:06:52;9.00;;;3.35;;
66970;SDS011;53901;51.466;-2.588;2023-05-28T12:09:18;8.20;;;3.35;;
66970;SDS011;53901;51.466;-2.588;2023-05-28T12:11:44;18.00;;;3.65;;
66970;SDS011;53901;51.466;-2.588;2023-05-28T12:14:10;8.63;;;3.58;;
66970;SDS011;53901;51.466;-2.588;2023-05-28T12:16:43;8.73;;;3.60;;
66970;SDS011;53901;51.466;-2.588;2023-05-28T12:19:11;7.68;;;3.47;;
66970;SDS011;53901;51.466;-2.588;2023-05-28T12:21:39;8.05;;;3.65;;
66970;SDS011;53901;51.466;-2.588;2023-05-28T12:24:11;7.03;;;3.22;;
66970;SDS011;53901;51.466;-2.588;2023-05-28T12:29:08;7.65;;;3.35;;
66970;SDS011;53901;51.466;-2.588;2023-05-28T12:31:34;6.80;;;3.47;;
66970;SDS011;53901;51.466;-2.588;2023-05-28T12:33:59;9.25;;;3.55;;
66970;SDS011;53901;51.466;-2.588;2023-05-28T12:36:25;8.52;;;3.20;;
66970;SDS011;53901;51.466;-2.588;2023-05-28T12:38:50;8.63;;;3.08;;
66970;SDS011;53901;51.466;-2.588;2023-05-28T12:41:16;10.57;;;3.22;;
66970;SDS011;53901;51.466;-2.588;2023-05-28T12:43:42;7.05;;;3.33;;
66970;SDS011;53901;51.466;-2.588;2023-05-28T12:46:09;10.52;;;3.60;;
66970;SDS011;53901;51.466;-2.588;2023-05-28T12:48:35;8.13;;;3.38;;
66970;SDS011;53901;51.466;-2.588;2023-05-28T12:51:00;8.57;;;3.47;;
66970;SDS011;53901;51.466;-2.588;2023-05-28T12:53:25;9.15;;;3.67;;
66970;SDS011;53901;51.466;-2.588;2023-05-28T12:55:51;8.60;;;3.30;;
66970;SDS011;53901;51.466;-2.588;2023-05-28T12:58:16;8.35;;;3.20;;
66970;SDS011;53901;51.466;-2.588;2023-05-28T13:00:42;8.27;;;3.38;;
66970;SDS011;53901;51.466;-2.588;2023-05-28T13:03:07;10.30;;;3.40;;
66970;SDS011;53901;51.466;-2.588;2023-05-28T13:05:32;6.20;;;3.03;;
66970;SDS011;53901;51.466;-2.588;2023-05-28T13:07:58;9.85;;;3.20;;
66970;SDS011;53901;51.466;-2.588;2023-05-28T13:10:26;9.02;;;3.20;;
66970;SDS011;53901;51.466;-2.588;2023-05-28T13:12:51;9.88;;;3.28;;
66970;SDS011;53901;51.466;-2.588;2023-05-28T13:15:17;6.85;;;2.92;;
66970;SDS011;53901;51.466;-2.588;2023-05-28T13:17:43;8.48;;;3.35;;
66970;SDS011;53901;51.466;-2.588;2023-05-28T13:20:09;9.32;;;3.47;;
66970;SDS011;53901;51.466;-2.588;2023-05-28T13:22:35;5.82;;;3.15;;
66970;SDS011;53901;51.466;-2.588;2023-05-28T13:25:02;7.40;;;3.53;;
66970;SDS011;53901;51.466;-2.588;2023-05-28T13:27:28;6.88;;;2.80;;
66970;SDS011;53901;51.466;-2.588;2023-05-28T13:29:53;6.35;;;3.03;;
66970;SDS011;53901;51.466;-2.588;2023-05-28T13:32:19;7.22;;;2.97;;
66970;SDS011;53901;51.466;-2.588;2023-05-28T13:34:44;8.00;;;3.17;;
66970;SDS011;53901;51.466;-2.588;2023-05-28T13:37:10;9.23;;;3.40;;
66970;SDS011;53901;51.466;-2.588;2023-05-28T13:39:35;8.27;;;3.30;;
66970;SDS011;53901;51.466;-2.588;2023-05-28T13:42:01;10.13;;;3.95;;
66970;SDS011;53901;51.466;-2.588;2023-05-28T13:44:28;7.43;;;3.35;;
66970;SDS011;53901;51.466;-2.588;2023-05-28T13:46:54;9.23;;;3.72;;
66970;SDS011;53901;51.466;-2.588;2023-05-28T13:49:19;10.10;;;3.80;;
66970;SDS011;53901;51.466;-2.588;2023-05-28T13:51:45;8.98;;;3.60;;
66970;SDS011;53901;51.466;-2.588;2023-05-28T13:54:11;9.70;;;3.70;;
66970;SDS011;53901;51.466;-2.588;2023-05-28T13:56:37;8.23;;;3.50;;
66970;SDS011;53901;51.466;-2.588;2023-05-28T13:59:02;12.55;;;3.50;;
66970;SDS011;53901;51.466;-2.588;2023-05-28T14:01:28;9.50;;;3.72;;
66970;SDS011;53901;51.466;-2.588;2023-05-28T14:03:53;13.00;;;3.50;;
66970;SDS011;53901;51.466;-2.588;2023-05-28T14:06:18;10.18;;;3.60;;
66970;SDS011;53901;51.466;-2.588;2023-05-28T14:08:44;7.40;;;3.60;;
66970;SDS011;53901;51.466;-2.588;2023-05-28T14:11:09;7.35;;;3.10;;
66970;SDS011;53901;51.466;-2.588;2023-05-28T14:13:35;7.40;;;3.05;;
66970;SDS011;53901;51.466;-2.588;2023-05-28T14:16:00;6.30;;;3.47;;
66970;SDS011;53901;51.466;-2.588;2023-05-28T14:18:26;9.23;;;3.53;;
66970;SDS011;53901;51.466;-2.588;2023-05-28T14:20:51;8.82;;;3.15;;
66970;SDS011;53901;51.466;-2.588;2023-05-28T14:23:17;6.75;;;3.10;;
66970;SDS011;53901;51.466;-2.588;2023-05-28T14:25:42;11.00;;;3.40;;
66970;SDS011;53901;51.466;-2.588;2023-05-28T14:28:08;6.68;;;3.10;;
66970;SDS011;53901;51.466;-2.588;2023-05-28T14:30:33;7.20;;;2.88;;
66970;SDS011;53901;51.466;-2.588;2023-05-28T14:32:58;9.50;;;3.10;;
66970;SDS011;53901;51.466;-2.588;2023-05-28T14:35:24;7.03;;;3.40;;